createdAt,value
2019-05-30T00:00:23.433Z,5.32
2019-05-30T00:05:10.783Z,6.00
2019-05-30T00:10:18.684Z,7.89
2019-05-30T00:15:25.876Z,7.53
2019-05-30T00:20:34.180Z,7.43
2019-05-30T00:25:55.485Z,8.34
2019-05-30T00:30:42.842Z,8.33
2019-05-30T00:35:51.178Z,8.50
2019-05-30T00:41:11.486Z,7.86
2019-05-30T00:46:00.744Z,8.30
2019-05-30T00:51:00.408Z,7.76
2019-05-30T00:56:06.834Z,8.18
2019-05-30T01:01:14.048Z,7.96
2019-05-30T01:06:22.262Z,7.48
2019-05-30T01:11:30.775Z,7.44
2019-05-30T01:16:38.000Z,7.02
2019-05-30T01:21:45.695Z,7.22
2019-05-30T01:26:54.864Z,6.89
2019-05-30T01:32:06.102Z,6.76
2019-05-30T01:36:54.554Z,7.01
2019-05-30T01:42:01.987Z,6.95
2019-05-30T01:47:22.134Z,6.55
2019-05-30T01:52:09.657Z,6.74
2019-05-30T01:57:29.781Z,7.40
2019-05-30T02:02:31.019Z,7.38
2019-05-30T02:07:18.184Z,8.13
2019-05-30T02:12:39.338Z,7.65
2019-05-30T02:17:27.600Z,7.57
2019-05-30T02:22:36.137Z,7.98
2019-05-30T02:27:43.453Z,7.56
2019-05-30T02:32:51.698Z,8.81
2019-05-30T02:38:12.871Z,9.33
2019-05-30T02:43:13.091Z,9.71
2019-05-30T02:48:14.287Z,8.95
2019-05-30T02:53:03.635Z,10.06
2019-05-30T02:58:10.534Z,8.82
2019-05-30T03:03:16.893Z,8.73
2019-05-30T03:08:24.136Z,7.97
2019-05-30T03:13:31.324Z,7.86
2019-05-30T03:18:52.566Z,8.04
2019-05-30T03:23:40.012Z,8.01
2019-05-30T03:29:00.225Z,7.21
2019-05-30T03:33:47.519Z,8.20
2019-05-30T03:39:10.282Z,9.57
2019-05-30T03:43:56.088Z,9.19
2019-05-30T03:49:04.352Z,9.38
2019-05-30T03:54:23.554Z,9.44
2019-05-30T03:59:12.657Z,8.94
2019-05-30T04:04:19.177Z,8.67
2019-05-30T04:09:25.587Z,10.19
2019-05-30T04:14:35.043Z,9.83
2019-05-30T04:19:42.326Z,11.54
2019-05-30T04:24:49.693Z,12.98
2019-05-30T04:29:56.983Z,9.99
2019-05-30T04:35:05.433Z,9.19
2019-05-30T04:40:13.438Z,7.85
2019-05-30T04:45:20.398Z,8.34
2019-05-30T04:50:27.432Z,8.12
2019-05-30T04:55:34.658Z,8.02
2019-05-30T05:00:55.827Z,7.93
2019-05-30T05:05:43.589Z,7.46
2019-05-30T05:10:52.074Z,7.63
2019-05-30T05:16:25.983Z,7.28
2019-05-30T05:21:00.982Z,6.62
2019-05-30T05:26:08.317Z,6.41
2019-05-30T05:31:29.367Z,7.08
2019-05-30T05:36:30.729Z,4.32
2019-05-30T05:41:18.235Z,4.38
2019-05-30T05:46:25.674Z,4.03
2019-05-30T05:51:45.849Z,3.87
2019-05-30T05:56:36.165Z,3.45
2019-05-30T06:01:47.467Z,3.49
2019-05-30T06:06:47.705Z,3.58
2019-05-30T06:11:49.184Z,4.70
2019-05-30T06:16:36.369Z,4.74
2019-05-30T06:27:00.672Z,4.96
2019-05-30T06:31:47.922Z,4.68
2019-05-30T06:36:55.936Z,4.81
2019-05-30T06:47:02.102Z,4.56
2019-05-30T06:52:22.795Z,5.07
2019-05-30T06:57:23.200Z,4.46
2019-05-30T07:02:10.441Z,5.14
2019-05-30T07:07:19.017Z,4.40
2019-05-30T07:17:31.460Z,4.99
2019-05-30T07:22:37.798Z,4.75
2019-05-30T07:27:45.868Z,4.72
2019-05-30T07:33:07.067Z,4.29
2019-05-30T07:38:07.138Z,4.17
2019-05-30T07:43:08.211Z,4.37
2019-05-30T07:47:56.672Z,4.32
2019-05-30T07:53:19.893Z,5.35
2019-05-30T07:58:07.316Z,5.37
2019-05-30T08:03:14.793Z,5.09
2019-05-30T08:08:22.318Z,4.93
2019-05-30T08:13:43.045Z,5.35
2019-05-30T08:18:31.572Z,5.75
2019-05-30T08:23:40.018Z,4.67
2019-05-30T08:28:47.443Z,5.25
2019-05-30T08:34:07.664Z,5.42
2019-05-30T08:39:08.516Z,5.20
2019-05-30T08:44:08.585Z,7.09
2019-05-30T08:48:56.998Z,9.33
2019-05-30T08:54:05.646Z,8.77
2019-05-30T08:59:13.102Z,8.93
2019-05-30T09:04:35.677Z,7.30
2019-05-30T09:09:36.030Z,6.34
2019-05-30T09:14:22.199Z,6.62
2019-05-30T09:19:43.519Z,6.55
2019-05-30T09:24:31.018Z,6.71
2019-05-30T09:29:41.646Z,7.36
2019-05-30T09:34:48.830Z,8.29
2019-05-30T09:40:09.102Z,7.49
2019-05-30T09:45:09.497Z,5.78
2019-05-30T09:50:09.869Z,6.84
2019-05-30T09:54:58.144Z,6.37
2019-05-30T10:00:06.617Z,7.19
2019-05-30T10:05:13.876Z,7.19
2019-05-30T10:10:35.163Z,7.84
2019-05-30T10:15:36.353Z,7.29
2019-05-30T10:20:23.545Z,7.61
2019-05-30T10:25:45.973Z,6.93
2019-05-30T10:35:51.479Z,6.66
2019-05-30T10:40:50.981Z,5.46
2019-05-30T10:45:38.987Z,5.35
2019-05-30T10:50:59.309Z,5.62
2019-05-30T10:55:59.552Z,4.53
2019-05-30T11:06:04.640Z,4.60
2019-05-30T11:11:06.050Z,3.89
2019-05-30T11:21:10.227Z,3.41
2019-05-30T11:25:58.921Z,2.78
2019-05-30T11:31:19.128Z,2.12
2019-05-30T11:36:07.241Z,2.18
2019-05-30T11:41:14.600Z,2.07
2019-05-30T11:51:36.689Z,2.39
2019-05-30T11:56:25.032Z,2.22
2019-05-30T12:06:50.795Z,2.27
2019-05-30T12:11:53.074Z,1.84
2019-05-30T12:16:39.753Z,1.59
2019-05-30T12:21:48.186Z,1.77
2019-05-30T12:26:56.363Z,2.73
2019-05-30T12:32:10.958Z,1.99
2019-05-30T12:36:58.571Z,1.59
2019-05-30T12:42:09.203Z,2.11
2019-05-30T12:52:33.568Z,2.12
2019-05-30T12:57:33.940Z,2.39
2019-05-30T13:02:23.460Z,1.97
2019-05-30T13:07:34.675Z,1.51
2019-05-30T13:12:35.141Z,1.64
2019-05-30T13:17:23.716Z,1.78
2019-05-30T13:22:31.128Z,1.81
2019-05-30T13:27:51.398Z,1.74
2019-05-30T13:32:51.905Z,2.07
2019-05-30T13:37:39.258Z,2.00
2019-05-30T13:42:47.755Z,2.30
2019-05-30T13:48:08.615Z,2.28
2019-05-30T13:57:57.159Z,2.89
2019-05-30T14:03:04.589Z,2.96
2019-05-30T14:13:28.718Z,3.09
2019-05-30T14:18:29.941Z,3.26
2019-05-30T14:23:31.110Z,3.01
2019-05-30T14:28:32.316Z,3.02
2019-05-30T14:33:19.935Z,3.16
2019-05-30T14:38:56.798Z,3.03
2019-05-30T14:43:41.307Z,3.01
2019-05-30T14:48:42.363Z,2.66
2019-05-30T14:53:31.282Z,2.41
2019-05-30T14:58:38.695Z,2.68
2019-05-30T15:03:45.977Z,3.22
2019-05-30T15:09:21.119Z,2.65
2019-05-30T15:14:08.740Z,2.69
2019-05-30T15:19:08.178Z,2.48
2019-05-30T15:24:09.685Z,2.03
2019-05-30T15:33:59.830Z,2.99
2019-05-30T15:39:32.294Z,2.68
2019-05-30T15:44:23.241Z,2.51
2019-05-30T15:49:12.753Z,2.44
2019-05-30T15:54:19.626Z,2.31
2019-05-30T15:59:27.154Z,1.93
2019-05-30T16:04:48.004Z,2.04
2019-05-30T16:09:48.184Z,2.58
2019-05-30T16:14:35.714Z,1.97
2019-05-30T16:19:55.892Z,1.66
2019-05-30T16:24:44.192Z,2.01
2019-05-30T16:30:05.599Z,1.67
2019-05-30T16:35:06.177Z,1.76
2019-05-30T16:40:07.233Z,1.90
2019-05-30T16:45:08.553Z,1.95
2019-05-30T16:50:11.881Z,2.02
2019-05-30T16:55:00.383Z,2.06
2019-05-30T17:00:21.764Z,2.39
2019-05-30T17:05:08.124Z,2.93
2019-05-30T17:10:32.882Z,2.94
2019-05-30T17:15:29.559Z,2.29
2019-05-30T17:20:18.434Z,2.66
2019-05-30T17:25:27.215Z,2.88
2019-05-30T17:30:46.560Z,2.72
2019-05-30T17:35:47.859Z,2.55
2019-05-30T17:40:49.723Z,2.28
2019-05-30T17:45:35.255Z,3.05
2019-05-30T17:50:56.474Z,3.11
2019-05-30T17:55:59.513Z,3.32
2019-05-30T18:05:58.353Z,3.62
2019-05-30T18:10:59.570Z,3.39
2019-05-30T18:15:46.927Z,3.57
2019-05-30T18:20:55.135Z,3.77
2019-05-30T18:26:03.382Z,4.27
2019-05-30T18:31:25.819Z,4.32
2019-05-30T18:46:16.861Z,4.60
2019-05-30T18:51:26.017Z,4.04
2019-05-30T19:06:53.802Z,3.50
2019-05-30T19:11:42.110Z,3.25
2019-05-30T19:17:02.496Z,3.42
2019-05-30T19:21:49.848Z,4.11
2019-05-30T19:26:57.422Z,3.92
2019-05-30T19:32:04.844Z,4.20
2019-05-30T19:37:12.343Z,4.47
2019-05-30T19:42:20.729Z,4.36
2019-05-30T19:47:41.075Z,4.46
2019-05-30T19:52:28.587Z,4.59
2019-05-30T19:57:36.151Z,4.57
2019-05-30T20:07:47.523Z,4.33
2019-05-30T20:12:54.882Z,4.08
2019-05-30T20:18:16.099Z,4.40
2019-05-30T20:23:04.398Z,4.05
2019-05-30T20:28:13.957Z,4.64
2019-05-30T20:33:34.451Z,4.61
2019-05-30T20:38:34.825Z,4.69
2019-05-30T20:43:22.143Z,5.13
2019-05-30T20:48:44.996Z,4.72
2019-05-30T20:53:30.204Z,4.86
2019-05-30T20:58:39.867Z,5.12
2019-05-30T21:03:47.144Z,4.88
2019-05-30T21:09:07.307Z,5.20
2019-05-30T21:13:55.491Z,5.35
2019-05-30T21:19:02.872Z,4.92
2019-05-30T21:24:23.251Z,5.66
2019-05-30T21:29:11.661Z,5.49
2019-05-30T21:34:23.246Z,5.20
2019-05-30T21:44:24.546Z,5.83
2019-05-30T21:49:31.919Z,5.71
2019-05-30T21:54:51.979Z,5.38
2019-05-30T22:04:56.774Z,5.85
2019-05-30T22:09:45.281Z,5.35
2019-05-30T22:14:52.542Z,6.48
2019-05-30T22:20:12.638Z,6.54
2019-05-30T22:25:01.123Z,5.58
2019-05-30T22:35:26.116Z,5.56
2019-05-30T22:40:13.578Z,5.21
2019-05-30T22:45:21.808Z,5.06
2019-05-30T22:50:30.127Z,5.06
2019-05-30T22:55:51.995Z,4.90
2019-05-30T23:00:38.671Z,4.60
2019-05-30T23:05:47.160Z,4.61
2019-05-30T23:10:53.805Z,4.57
2019-05-30T23:16:00.723Z,5.57
2019-05-30T23:21:07.944Z,4.97
2019-05-30T23:26:29.048Z,5.19
2019-05-30T23:31:19.191Z,4.94
2019-05-30T23:36:17.569Z,4.75
2019-05-30T23:41:37.757Z,5.17
2019-05-30T23:46:38.748Z,5.52
2019-05-30T23:51:27.146Z,5.64
2019-05-30T23:56:34.303Z,5.67
